Pagina principale
METAR-TAF:

METAR-TAF

Aeroporti :

Base di Solenzara

Solenzara, Francia

latitudine: 41-55N, longitudine: 009-24E, altezza: 8 m

Osservazione

Il bollettino è stato emesso 28 minuti fa, alle 13:00 UTC
Vento 5 kt da est/sud-est, variando fra est/nord-est e sud/sud-est
Temperature 25°C
Umidità 54%
Pressione 1024 hPa
Visibilità 10 km o più
nessuna nube inferiore a 1500 m e nessun cumulonembo

METAR: LFKS 261300Z AUTO 11005KT 060V150 CAVOK 25/15 Q1024

Ora: 15:28 (13:28 UTC)

Previsione

Il bollettino è stato emesso 5 ore e 28 minuti fa, alle 08:00 UTC
Previsione valida dal 26 alle 09 UTC al 27 alle 09 UTC
Vento 5 kt da est/sud-est
Visibilità 10 km o più
nessuna nube inferiore a 1500 m e nessun cumulonembo
Temporaneamente
dal 26 alle 09 UTC al 26 alle 12 UTC
Vento 10 kt da est/nord-est

TAF: LFKS 260800Z 2609/2709 12005KT CAVOK TEMPO 2609/2612 06010KT

Osservazioni e previsioni meteorologiche di più di 4000 aeroporti (messaggi METAR e TAF).

Le stazioni disponibili sono rappresentate dai dischi gialli e rossi sulla carta.

Puntare il mouse per vedere il nome della stazione.

Clicca sopra per visualizzare le osservazioni e previsioni meteorologiche.

Per cambiare la mappa : fare clic sui pulsanti verdi con una croce nera per ingrandire, il pulsante verde con un trattino per diminuire, o sulla freccia verde per le mappe adiacenti.


METAR-TAF: